Time;durP1;ratioP1;P1;durP2;ratioP2;P2;SDS_P1;SDS_P2;PMS_P1;PMS_P2;Temp;Humidity;BMP_temperature;BMP_pressure;BME280_temperature;BME280_humidity;BME280_pressure;Samples;Min_cycle;Max_cycle;Signal;HPM_P1;HPM_P2
2023/08/14 00:00:51;;;;;;;5.85;2.55;;;15.80;93.40;;;;;;5025627;28;20037;-68
2023/08/14 00:03:18;;;;;;;6.68;3.10;;;15.80;93.40;;;;;;5032710;28;20048;-68
2023/08/14 00:05:43;;;;;;;7.88;2.85;;;15.80;93.40;;;;;;5028426;28;20113;-68
2023/08/14 00:08:09;;;;;;;8.05;2.80;;;15.80;93.40;;;;;;5028824;28;20171;-68
2023/08/14 00:10:34;;;;;;;6.43;2.90;;;15.80;93.40;;;;;;5029424;28;20069;-68
2023/08/14 00:13:00;;;;;;;11.48;2.70;;;15.80;93.60;;;;;;5030529;28;20040;-68
2023/08/14 00:15:25;;;;;;;8.65;2.75;;;15.80;93.50;;;;;;5024456;28;20144;-68
2023/08/14 00:17:51;;;;;;;8.68;2.80;;;15.80;93.30;;;;;;5029363;28;20025;-68
2023/08/14 00:20:17;;;;;;;9.15;2.72;;;15.80;93.20;;;;;;5031592;28;20040;-68
2023/08/14 00:22:42;;;;;;;6.88;2.60;;;15.80;93.20;;;;;;5015715;28;20069;-68
2023/08/14 00:25:09;;;;;;;10.25;2.70;;;15.80;93.20;;;;;;5024085;28;20393;-68
2023/08/14 00:27:34;;;;;;;7.90;3.00;;;15.80;93.30;;;;;;5019175;28;20136;-68
2023/08/14 00:30:01;;;;;;;9.13;2.70;;;15.80;93.30;;;;;;5022249;28;20045;-68
2023/08/14 00:32:26;;;;;;;8.88;2.83;;;15.70;93.40;;;;;;5043629;28;20040;-67
2023/08/14 00:34:51;;;;;;;9.65;2.83;;;15.70;93.30;;;;;;5051937;28;20029;-68
2023/08/14 00:37:17;;;;;;;9.20;3.20;;;15.70;93.50;;;;;;5034284;28;20041;-68
2023/08/14 00:39:42;;;;;;;7.10;2.50;;;15.70;93.40;;;;;;5023991;28;20052;-67
2023/08/14 00:42:08;;;;;;;8.57;2.95;;;15.80;93.40;;;;;;5027727;28;20116;-68
2023/08/14 00:44:33;;;;;;;9.18;2.70;;;15.70;93.30;;;;;;5026759;28;20458;-68
2023/08/14 00:46:59;;;;;;;7.50;2.60;;;15.70;93.50;;;;;;5030326;28;20049;-68
2023/08/14 00:49:25;;;;;;;7.35;2.92;;;15.70;93.40;;;;;;5027299;28;20026;-68
2023/08/14 00:51:53;;;;;;;9.10;2.55;;;15.70;93.50;;;;;;5030992;28;20032;-68
2023/08/14 00:54:19;;;;;;;10.20;2.85;;;15.70;93.60;;;;;;5033473;28;20028;-68
2023/08/14 00:56:45;;;;;;;9.52;2.75;;;15.60;93.80;;;;;;5034909;28;20104;-68
2023/08/14 00:59:10;;;;;;;7.22;2.85;;;15.70;93.70;;;;;;5034187;28;20040;-68
2023/08/14 01:01:36;;;;;;;7.05;3.20;;;15.70;93.80;;;;;;5025516;28;20033;-68
2023/08/14 01:04:01;;;;;;;9.25;3.00;;;15.70;93.70;;;;;;5031051;28;20060;-68
2023/08/14 01:06:27;;;;;;;7.40;2.90;;;15.60;93.70;;;;;;5024903;28;20092;-69
2023/08/14 01:08:53;;;;;;;5.50;2.67;;;15.60;93.70;;;;;;5033270;28;20082;-69
2023/08/14 01:11:38;;;;;;;11.10;3.28;;;15.60;93.80;;;;;;5035718;28;20039;-68
2023/08/14 01:14:17;;;;;;;11.05;3.42;;;15.70;93.70;;;;;;5037790;28;20541;-68
2023/08/14 01:16:49;;;;;;;7.60;3.05;;;15.60;93.60;;;;;;5026719;28;20132;-68
2023/08/14 01:19:21;;;;;;;10.88;2.95;;;15.60;93.90;;;;;;5024986;28;20049;-68
2023/08/14 01:22:21;;;;;;;8.27;2.97;;;15.50;94.00;;;;;;5029712;28;20773;-69
2023/08/14 01:25:22;;;;;;;7.20;3.00;;;15.60;94.20;;;;;;5010271;28;20065;-68
2023/08/14 01:27:49;;;;;;;9.93;3.40;;;15.60;94.00;;;;;;5031790;28;20184;-68
2023/08/14 01:30:14;;;;;;;7.35;3.22;;;15.60;94.00;;;;;;5025024;28;20038;-68
2023/08/14 01:32:40;;;;;;;9.00;2.67;;;15.60;94.20;;;;;;5027224;28;20364;-68
2023/08/14 01:35:06;;;;;;;7.03;2.92;;;15.60;94.20;;;;;;5040237;28;20112;-68
2023/08/14 01:38:03;;;;;;;7.45;3.22;;;15.50;94.10;;;;;;5025054;28;20470;-68
2023/08/14 01:41:00;;;;;;;6.43;3.08;;;15.50;94.20;;;;;;5021302;28;20561;-68
2023/08/14 01:43:37;;;;;;;7.80;2.95;;;15.50;94.20;;;;;;5032991;28;20420;-68
2023/08/14 01:46:04;;;;;;;7.20;2.88;;;15.50;94.10;;;;;;5033715;28;20482;-68
2023/08/14 01:48:30;;;;;;;7.05;3.33;;;15.50;94.20;;;;;;5028647;28;20100;-68
2023/08/14 01:50:56;;;;;;;10.38;3.13;;;15.50;94.20;;;;;;5042770;28;20037;-68
2023/08/14 01:53:22;;;;;;;11.77;3.20;;;15.50;94.10;;;;;;5024227;28;20036;-68
2023/08/14 01:55:47;;;;;;;8.55;3.45;;;15.50;94.20;;;;;;5035073;28;20052;-68
2023/08/14 01:58:13;;;;;;;10.93;3.75;;;15.50;94.40;;;;;;5043977;28;20055;-67
2023/08/14 02:00:38;;;;;;;8.90;3.50;;;15.50;94.40;;;;;;5024387;28;20065;-68
2023/08/14 02:03:04;;;;;;;9.35;3.75;;;15.40;94.40;;;;;;5041859;28;20028;-68
2023/08/14 02:05:29;;;;;;;10.38;3.50;;;15.40;94.40;;;;;;5028158;28;20071;-68
2023/08/14 02:07:55;;;;;;;5.30;2.67;;;15.40;94.50;;;;;;5039467;28;20107;-69
2023/08/14 02:10:21;;;;;;;7.60;2.92;;;15.30;94.50;;;;;;5033712;28;20029;-68
2023/08/14 02:12:46;;;;;;;8.95;2.90;;;15.30;94.80;;;;;;5039496;28;20517;-68
2023/08/14 02:15:12;;;;;;;7.50;3.20;;;15.30;94.80;;;;;;5022684;28;20083;-68
2023/08/14 02:17:37;;;;;;;10.15;3.35;;;15.20;94.70;;;;;;5027213;28;20033;-68
2023/08/14 02:20:03;;;;;;;6.90;3.35;;;15.10;94.70;;;;;;5035313;28;20060;-68
2023/08/14 02:22:29;;;;;;;10.80;3.13;;;15.00;94.90;;;;;;5031187;28;20390;-68
2023/08/14 02:24:54;;;;;;;7.28;3.30;;;15.00;95.40;;;;;;5030592;28;20071;-68
2023/08/14 02:27:20;;;;;;;6.45;3.25;;;15.00;95.60;;;;;;5028170;28;20080;-68
2023/08/14 02:29:45;;;;;;;7.80;3.55;;;14.90;95.50;;;;;;5022528;28;20029;-68
2023/08/14 02:32:11;;;;;;;6.28;3.20;;;14.90;95.80;;;;;;5028565;28;20042;-69
2023/08/14 02:34:47;;;;;;;7.40;3.78;;;14.80;95.80;;;;;;5029583;28;20051;-68
2023/08/14 02:37:14;;;;;;;6.00;3.05;;;14.80;96.10;;;;;;5032738;28;20044;-68
2023/08/14 02:39:39;;;;;;;12.23;3.90;;;14.70;96.00;;;;;;5029197;28;20041;-69
2023/08/14 02:42:05;;;;;;;9.80;3.80;;;14.70;96.10;;;;;;5032229;28;20385;-68
2023/08/14 02:44:31;;;;;;;10.70;3.92;;;14.60;96.40;;;;;;5025937;28;20531;-68
2023/08/14 02:46:57;;;;;;;9.68;3.53;;;14.60;96.10;;;;;;5027219;28;20033;-69
2023/08/14 02:49:22;;;;;;;7.95;3.78;;;14.60;96.20;;;;;;5028171;28;20091;-68
2023/08/14 02:51:48;;;;;;;12.88;4.70;;;14.60;96.60;;;;;;5031947;28;20029;-69
2023/08/14 02:54:13;;;;;;;12.48;4.22;;;14.60;96.70;;;;;;5039607;28;20067;-68
2023/08/14 02:56:39;;;;;;;10.00;4.53;;;14.60;96.60;;;;;;5020859;28;20042;-68
2023/08/14 02:59:04;;;;;;;11.73;4.55;;;14.60;96.60;;;;;;5040858;28;20036;-68
2023/08/14 03:01:30;;;;;;;11.60;4.38;;;14.50;96.60;;;;;;5024663;28;20041;-68
2023/08/14 03:03:56;;;;;;;13.50;4.57;;;14.50;96.80;;;;;;5030463;28;20370;-68
2023/08/14 03:06:21;;;;;;;10.23;4.43;;;14.50;97.00;;;;;;5031314;28;20030;-68
2023/08/14 03:08:49;;;;;;;12.45;4.43;;;14.50;96.80;;;;;;5046195;28;20163;-68
2023/08/14 03:11:14;;;;;;;11.65;4.22;;;14.50;96.80;;;;;;5032658;28;20033;-68
2023/08/14 03:13:39;;;;;;;16.90;4.68;;;14.50;96.90;;;;;;5031900;28;20116;-68
2023/08/14 03:16:05;;;;;;;10.50;4.75;;;14.50;96.90;;;;;;5030892;28;20497;-68
2023/08/14 03:18:30;;;;;;;8.95;4.30;;;14.40;96.60;;;;;;5027799;28;20025;-68
2023/08/14 03:20:56;;;;;;;9.88;4.55;;;14.30;96.60;;;;;;5029718;28;20041;-68
2023/08/14 03:23:22;;;;;;;11.20;4.70;;;14.30;96.80;;;;;;5039051;28;20523;-68
2023/08/14 03:25:47;;;;;;;7.90;4.30;;;14.30;96.90;;;;;;5027225;28;20056;-68
2023/08/14 03:28:12;;;;;;;6.68;4.50;;;14.20;97.00;;;;;;5033520;28;20032;-68
2023/08/14 03:30:42;;;;;;;8.52;4.75;;;14.20;97.10;;;;;;5022106;28;20156;-68
2023/08/14 03:33:08;;;;;;;10.57;4.43;;;14.10;97.00;;;;;;5026718;28;20119;-68
2023/08/14 03:35:33;;;;;;;8.95;4.18;;;14.10;96.80;;;;;;5026046;28;20072;-68
2023/08/14 03:37:59;;;;;;;11.85;4.43;;;14.00;96.80;;;;;;5033108;28;20048;-68
2023/08/14 03:40:24;;;;;;;11.43;4.60;;;14.00;96.70;;;;;;5037257;28;20041;-68
2023/08/14 03:42:50;;;;;;;7.00;4.00;;;14.00;96.60;;;;;;5031596;28;20037;-67
2023/08/14 03:45:15;;;;;;;9.70;3.90;;;13.90;96.80;;;;;;5029968;28;20068;-68
2023/08/14 03:47:41;;;;;;;8.77;4.22;;;13.80;96.70;;;;;;5040528;28;20492;-68
2023/08/14 03:50:07;;;;;;;7.55;4.03;;;13.80;96.80;;;;;;5037338;28;20156;-68
2023/08/14 03:52:32;;;;;;;10.88;4.38;;;13.80;97.10;;;;;;5029489;28;20057;-68
2023/08/14 03:54:58;;;;;;;7.35;3.85;;;13.80;97.30;;;;;;5031031;28;20131;-68
2023/08/14 03:57:23;;;;;;;9.10;3.92;;;13.70;97.20;;;;;;5024987;28;20049;-68
2023/08/14 03:59:49;;;;;;;9.10;4.60;;;13.70;97.20;;;;;;5031823;28;20578;-68
2023/08/14 04:02:14;;;;;;;12.23;4.88;;;13.70;97.20;;;;;;5029033;28;20443;-68
2023/08/14 04:04:40;;;;;;;8.60;5.00;;;13.60;97.10;;;;;;5034765;28;20036;-67
2023/08/14 04:07:05;;;;;;;9.40;4.65;;;13.60;97.40;;;;;;5025153;28;20065;-68
2023/08/14 04:09:30;;;;;;;7.20;4.30;;;13.60;97.20;;;;;;5023924;28;20029;-68
2023/08/14 04:11:56;;;;;;;10.50;5.00;;;13.60;97.30;;;;;;5023769;28;20179;-68
2023/08/14 04:14:23;;;;;;;11.35;5.03;;;13.60;97.50;;;;;;5024432;28;20087;-68
2023/08/14 04:16:49;;;;;;;7.82;4.82;;;13.60;97.40;;;;;;5022132;28;20412;-69
2023/08/14 04:19:17;;;;;;;9.93;4.55;;;13.60;97.20;;;;;;5027848;28;20036;-68
2023/08/14 04:21:43;;;;;;;10.77;5.38;;;13.60;97.20;;;;;;5025833;28;20508;-68
2023/08/14 04:24:10;;;;;;;9.77;4.75;;;13.60;97.30;;;;;;5029451;28;20060;-68
2023/08/14 04:26:39;;;;;;;10.57;4.90;;;13.60;97.50;;;;;;5022615;28;20038;-68
2023/08/14 04:29:08;;;;;;;8.70;4.60;;;13.60;97.40;;;;;;5022816;28;20047;-69
2023/08/14 04:31:38;;;;;;;7.55;4.47;;;13.60;97.40;;;;;;5017286;28;20033;-68
2023/08/14 04:34:05;;;;;;;11.25;4.88;;;13.60;97.20;;;;;;5025451;28;20029;-68
2023/08/14 04:36:32;;;;;;;10.02;5.00;;;13.60;97.20;;;;;;5020139;28;20955;-68
2023/08/14 04:38:58;;;;;;;8.45;5.28;;;13.70;97.30;;;;;;5027192;28;20034;-69
2023/08/14 04:41:25;;;;;;;9.32;4.72;;;13.70;97.40;;;;;;5025024;28;20034;-68
2023/08/14 04:43:50;;;;;;;10.20;5.60;;;13.80;97.60;;;;;;5022793;28;20029;-68
2023/08/14 04:46:32;;;;;;;12.23;6.38;;;13.80;97.50;;;;;;5025621;28;20033;-68
2023/08/14 04:48:58;;;;;;;10.80;6.05;;;13.80;97.60;;;;;;5015907;28;20545;-69
2023/08/14 04:51:24;;;;;;;10.35;6.20;;;13.80;97.50;;;;;;5022558;28;20105;-68
2023/08/14 04:53:49;;;;;;;11.40;6.60;;;13.90;97.70;;;;;;5038909;28;20120;-68
2023/08/14 04:56:15;;;;;;;13.43;6.65;;;14.00;97.90;;;;;;5028180;28;20034;-68
2023/08/14 04:58:40;;;;;;;14.93;6.90;;;14.10;98.30;;;;;;5033251;28;20123;-68
2023/08/14 05:01:06;;;;;;;13.85;7.38;;;14.10;97.90;;;;;;5017862;28;20044;-68
2023/08/14 05:03:32;;;;;;;14.95;7.20;;;14.20;98.20;;;;;;5027200;28;20047;-68
2023/08/14 05:05:57;;;;;;;11.45;6.43;;;14.10;98.10;;;;;;5028638;28;20116;-68
2023/08/14 05:08:23;;;;;;;13.18;7.53;;;14.20;98.20;;;;;;5022291;28;20032;-68
2023/08/14 05:10:52;;;;;;;12.82;7.10;;;14.30;98.20;;;;;;5028687;28;20033;-68
2023/08/14 05:13:18;;;;;;;16.50;7.25;;;14.30;98.10;;;;;;5020389;28;20025;-68
2023/08/14 05:15:46;;;;;;;16.40;7.00;;;14.40;98.10;;;;;;5016264;28;20095;-68
2023/08/14 05:18:12;;;;;;;14.07;7.80;;;14.40;98.10;;;;;;5027921;28;20045;-68
2023/08/14 05:20:38;;;;;;;14.90;7.30;;;14.60;98.20;;;;;;5035686;28;20029;-69
2023/08/14 05:23:04;;;;;;;17.73;8.25;;;14.70;98.30;;;;;;5027898;28;20028;-68
2023/08/14 05:25:29;;;;;;;12.82;7.38;;;14.80;98.10;;;;;;5020053;28;20405;-68
2023/08/14 05:27:55;;;;;;;15.80;7.90;;;15.00;98.10;;;;;;5021047;28;20076;-69
2023/08/14 05:30:20;;;;;;;18.30;7.47;;;15.00;98.00;;;;;;5019916;28;20454;-68
2023/08/14 05:32:47;;;;;;;18.85;7.80;;;15.10;97.90;;;;;;5022673;28;20156;-68
2023/08/14 05:35:13;;;;;;;15.52;6.85;;;15.20;97.80;;;;;;5023786;28;20127;-68
2023/08/14 05:37:40;;;;;;;11.18;6.55;;;15.30;97.80;;;;;;5024559;28;20517;-70
2023/08/14 05:40:06;;;;;;;12.10;6.55;;;15.50;97.80;;;;;;5044024;28;20025;-70
2023/08/14 05:42:32;;;;;;;9.73;6.15;;;15.50;97.60;;;;;;5024680;28;20051;-70
2023/08/14 05:44:57;;;;;;;12.02;6.15;;;15.60;97.60;;;;;;5033297;28;20033;-69
2023/08/14 05:47:23;;;;;;;10.98;5.50;;;15.70;97.60;;;;;;5035617;28;20046;-69
2023/08/14 05:49:48;;;;;;;12.60;5.47;;;15.80;97.50;;;;;;5031212;28;20021;-69
2023/08/14 05:52:14;;;;;;;13.02;5.72;;;16.10;97.20;;;;;;5022513;28;20038;-69
2023/08/14 05:54:40;;;;;;;11.30;5.35;;;16.40;96.90;;;;;;5031579;28;20450;-69
2023/08/14 05:57:05;;;;;;;12.60;4.88;;;16.60;96.20;;;;;;5015214;28;20036;-68
2023/08/14 05:59:32;;;;;;;11.65;4.43;;;16.80;95.90;;;;;;5020793;28;20033;-69
2023/08/14 06:01:57;;;;;;;10.15;4.60;;;17.00;95.70;;;;;;5020499;28;20032;-69
2023/08/14 06:04:23;;;;;;;9.35;3.85;;;17.20;94.50;;;;;;5015537;28;20029;-68
2023/08/14 06:06:48;;;;;;;6.82;3.25;;;17.40;93.70;;;;;;5024536;28;20063;-68
2023/08/14 06:09:14;;;;;;;6.28;3.33;;;17.60;93.00;;;;;;5023437;28;20039;-69
2023/08/14 06:11:39;;;;;;;9.52;3.22;;;17.80;92.90;;;;;;5015773;28;20076;-69
2023/08/14 06:14:05;;;;;;;7.18;2.90;;;18.00;92.50;;;;;;5026528;28;20499;-68
2023/08/14 06:16:31;;;;;;;6.75;2.70;;;18.30;91.20;;;;;;5027221;28;20033;-69
2023/08/14 06:18:56;;;;;;;6.82;2.75;;;18.40;90.50;;;;;;5020715;28;20052;-68
2023/08/14 06:21:22;;;;;;;7.57;2.60;;;18.60;90.50;;;;;;5028299;28;20029;-69
2023/08/14 06:23:47;;;;;;;8.38;2.80;;;18.60;90.10;;;;;;5023062;28;20046;-69
2023/08/14 06:26:13;;;;;;;6.35;2.50;;;18.70;89.60;;;;;;5023971;28;20489;-69
2023/08/14 06:28:38;;;;;;;7.53;2.38;;;18.80;89.40;;;;;;5026287;28;20041;-69
2023/08/14 06:31:03;;;;;;;7.93;2.90;;;18.80;89.30;;;;;;5022036;28;20042;-69
2023/08/14 06:33:29;;;;;;;10.90;2.63;;;19.00;89.20;;;;;;5025945;28;20045;-69
2023/08/14 06:35:55;;;;;;;8.13;2.60;;;19.00;88.40;;;;;;5008389;28;20060;-68
2023/08/14 06:38:20;;;;;;;6.70;2.50;;;19.00;87.90;;;;;;5034163;28;20030;-69
2023/08/14 06:40:46;;;;;;;5.93;2.22;;;19.10;87.60;;;;;;5021324;28;20039;-69
2023/08/14 06:43:11;;;;;;;10.50;2.53;;;19.10;87.20;;;;;;5017990;28;20038;-69
2023/08/14 06:45:37;;;;;;;8.25;2.63;;;19.20;87.10;;;;;;5022754;28;20087;-69
2023/08/14 06:48:02;;;;;;;6.90;2.80;;;19.10;87.80;;;;;;5022469;28;20032;-69
2023/08/14 06:50:28;;;;;;;6.82;2.53;;;19.10;89.00;;;;;;5024146;28;20069;-69
2023/08/14 06:52:53;;;;;;;9.02;2.63;;;19.20;88.90;;;;;;5034591;28;20140;-69
2023/08/14 06:55:20;;;;;;;7.40;2.40;;;19.20;88.20;;;;;;5019022;28;20041;-69
2023/08/14 06:57:46;;;;;;;7.32;2.63;;;19.10;88.60;;;;;;5020360;28;20034;-69
2023/08/14 07:00:12;;;;;;;5.82;2.92;;;19.10;89.10;;;;;;5018262;28;20029;-69
2023/08/14 07:02:38;;;;;;;7.63;2.28;;;19.30;89.30;;;;;;5024096;28;20040;-69
2023/08/14 07:05:04;;;;;;;5.90;2.72;;;19.40;88.60;;;;;;5033746;28;20029;-69
2023/08/14 07:07:29;;;;;;;7.53;2.47;;;19.60;87.90;;;;;;5024853;28;20037;-69
2023/08/14 07:09:55;;;;;;;7.43;2.97;;;19.70;87.90;;;;;;5034040;28;20477;-69
2023/08/14 07:12:20;;;;;;;6.70;2.20;;;19.80;87.10;;;;;;5026994;28;20100;-69
2023/08/14 07:14:46;;;;;;;6.90;2.30;;;19.90;85.10;;;;;;5020630;28;20056;-69
2023/08/14 07:17:11;;;;;;;5.57;2.40;;;20.00;84.80;;;;;;5025985;28;20057;-68
2023/08/14 07:19:37;;;;;;;8.10;2.63;;;20.00;83.90;;;;;;5029755;28;20034;-69
2023/08/14 07:22:02;;;;;;;5.63;2.63;;;20.10;84.20;;;;;;5019104;28;20037;-69
2023/08/14 07:24:28;;;;;;;5.18;2.22;;;20.20;83.80;;;;;;5025942;28;20049;-69
2023/08/14 07:26:53;;;;;;;5.38;2.25;;;20.30;83.80;;;;;;5022527;28;20038;-71
2023/08/14 07:29:19;;;;;;;4.72;1.75;;;20.50;84.70;;;;;;5030055;28;20065;-69
2023/08/14 07:31:44;;;;;;;4.78;2.13;;;20.50;83.10;;;;;;5026064;28;20113;-68
2023/08/14 07:34:09;;;;;;;5.50;2.40;;;20.70;82.30;;;;;;5024234;28;20512;-68
2023/08/14 07:36:35;;;;;;;7.97;2.10;;;20.90;81.30;;;;;;5004828;28;20049;-68
2023/08/14 07:39:00;;;;;;;5.75;2.05;;;21.10;81.00;;;;;;5027127;28;20532;-67
2023/08/14 07:41:26;;;;;;;4.55;1.70;;;21.30;79.30;;;;;;5031122;28;20036;-68
2023/08/14 07:43:51;;;;;;;5.53;2.00;;;21.50;81.00;;;;;;5031205;28;20433;-68
2023/08/14 07:46:18;;;;;;;7.13;2.22;;;21.60;80.40;;;;;;5000661;28;20148;-69
2023/08/14 07:48:44;;;;;;;4.30;1.52;;;21.70;77.20;;;;;;5023244;28;20026;-68
2023/08/14 07:51:10;;;;;;;4.78;1.90;;;21.70;78.30;;;;;;5022265;28;20037;-69
2023/08/14 07:53:35;;;;;;;5.95;2.00;;;21.80;78.40;;;;;;5023537;28;20028;-68
2023/08/14 07:56:01;;;;;;;6.35;1.75;;;21.90;78.10;;;;;;5023009;28;20040;-68
2023/08/14 07:58:26;;;;;;;4.13;1.80;;;21.90;76.60;;;;;;5019552;28;20502;-68
2023/08/14 08:00:52;;;;;;;4.75;1.42;;;22.10;77.50;;;;;;5023785;28;20030;-69
2023/08/14 08:03:18;;;;;;;5.93;1.95;;;22.40;76.80;;;;;;5021560;28;20545;-68
2023/08/14 08:05:43;;;;;;;5.43;1.90;;;22.60;77.90;;;;;;5025985;28;20057;-68
2023/08/14 08:08:08;;;;;;;7.43;2.20;;;22.80;78.20;;;;;;5032234;28;20033;-68
2023/08/14 08:10:35;;;;;;;5.80;1.90;;;22.80;76.30;;;;;;5032126;28;20065;-68
2023/08/14 08:13:01;;;;;;;4.70;1.98;;;22.80;75.70;;;;;;5027092;28;20026;-68
2023/08/14 08:15:26;;;;;;;4.45;1.63;;;22.80;75.30;;;;;;5020194;28;20045;-68
2023/08/14 08:17:52;;;;;;;6.18;1.98;;;22.90;76.20;;;;;;5023946;28;20026;-69
2023/08/14 08:20:18;;;;;;;6.82;2.30;;;23.00;77.40;;;;;;5020909;28;20029;-69
2023/08/14 08:22:43;;;;;;;3.33;1.73;;;22.80;73.60;;;;;;5030789;28;20036;-68
2023/08/14 08:25:09;;;;;;;5.75;1.65;;;22.90;74.40;;;;;;5022894;28;20130;-69
2023/08/14 08:27:35;;;;;;;6.25;1.92;;;23.10;74.40;;;;;;5032102;28;20028;-68
2023/08/14 08:30:02;;;;;;;4.13;1.90;;;23.30;75.00;;;;;;5027935;28;20033;-68
2023/08/14 08:32:27;;;;;;;6.10;1.88;;;23.30;74.30;;;;;;5016123;28;20029;-69
2023/08/14 08:34:53;;;;;;;4.22;1.73;;;23.60;75.80;;;;;;5023949;28;20148;-69
2023/08/14 08:37:19;;;;;;;33.85;6.55;;;23.50;71.80;;;;;;5023148;28;20127;-68
2023/08/14 08:39:44;;;;;;;23.52;11.35;;;23.50;73.50;;;;;;5025131;28;20455;-68
2023/08/14 08:42:10;;;;;;;12.13;4.32;;;23.60;75.10;;;;;;5034020;28;20032;-68
2023/08/14 08:44:41;;;;;;;6.15;2.38;;;23.60;74.60;;;;;;4993764;28;20053;-68
2023/08/14 08:47:08;;;;;;;7.93;2.00;;;23.70;74.20;;;;;;5017389;28;20061;-68
2023/08/14 08:49:34;;;;;;;5.70;2.10;;;23.80;70.70;;;;;;5028891;28;20029;-68
2023/08/14 08:52:04;;;;;;;4.78;2.00;;;24.00;71.90;;;;;;5019122;28;20386;-69
2023/08/14 08:54:30;;;;;;;4.93;1.90;;;24.10;71.70;;;;;;5016808;28;20073;-68
2023/08/14 08:56:57;;;;;;;4.45;2.00;;;24.30;71.20;;;;;;5025200;28;20355;-68
2023/08/14 08:59:22;;;;;;;7.15;2.25;;;24.40;69.80;;;;;;5017076;28;20025;-69
2023/08/14 09:01:48;;;;;;;8.23;2.10;;;24.40;70.40;;;;;;5026811;28;20033;-68
2023/08/14 09:04:14;;;;;;;5.47;1.95;;;24.30;70.20;;;;;;5026163;28;20528;-69
2023/08/14 09:06:40;;;;;;;7.55;1.95;;;24.00;70.00;;;;;;5014096;28;20045;-69
2023/08/14 09:09:06;;;;;;;2.90;1.67;;;24.10;71.70;;;;;;5016860;28;20040;-69
2023/08/14 09:11:32;;;;;;;17.42;7.53;;;24.00;72.30;;;;;;5031924;28;20055;-68
2023/08/14 09:13:58;;;;;;;10.55;4.80;;;24.10;70.90;;;;;;5031367;28;20462;-68
2023/08/14 09:16:27;;;;;;;3.90;2.13;;;24.30;72.20;;;;;;5030182;28;20045;-68
2023/08/14 09:18:56;;;;;;;10.90;4.07;;;24.80;71.50;;;;;;5032399;28;20044;-69
2023/08/14 09:21:22;;;;;;;4.50;2.17;;;25.00;69.60;;;;;;5024982;28;20033;-69
2023/08/14 09:23:47;;;;;;;11.50;3.90;;;25.00;69.70;;;;;;5020530;28;20041;-69
2023/08/14 09:26:13;;;;;;;6.10;2.08;;;25.00;68.90;;;;;;5023598;28;20037;-68
2023/08/14 09:28:38;;;;;;;5.40;2.30;;;25.10;68.50;;;;;;5022930;28;20481;-68
2023/08/14 09:31:07;;;;;;;12.30;4.15;;;25.20;68.80;;;;;;5017723;28;20029;-69
2023/08/14 09:33:33;;;;;;;6.53;2.05;;;25.00;69.20;;;;;;5028215;28;20033;-69
2023/08/14 09:35:58;;;;;;;5.95;2.47;;;25.20;70.90;;;;;;5021549;28;20134;-68
2023/08/14 09:38:24;;;;;;;7.25;2.72;;;24.70;68.70;;;;;;5019507;28;20029;-69
2023/08/14 09:40:56;;;;;;;49.85;4.05;;;25.00;71.60;;;;;;5017794;28;20098;-69
2023/08/14 09:43:25;;;;;;;33.15;3.10;;;24.90;71.70;;;;;;5020530;28;20022;-68
2023/08/14 09:45:56;;;;;;;13.40;2.30;;;24.70;71.60;;;;;;4988766;28;20061;-69
2023/08/14 09:48:22;;;;;;;7.65;2.03;;;24.90;70.70;;;;;;5020043;28;20061;-68
2023/08/14 09:50:52;;;;;;;5.80;1.92;;;24.70;71.00;;;;;;5021559;28;20036;-68
2023/08/14 09:53:18;;;;;;;15.98;2.55;;;24.50;72.60;;;;;;5018562;28;20037;-67
2023/08/14 09:55:44;;;;;;;15.00;2.28;;;24.60;73.10;;;;;;5025527;28;20108;-67
2023/08/14 09:58:10;;;;;;;6.88;1.92;;;24.60;71.10;;;;;;5021829;28;20475;-67
2023/08/14 10:00:37;;;;;;;6.55;1.98;;;24.70;68.90;;;;;;5015934;28;20117;-67
2023/08/14 10:03:07;;;;;;;6.32;2.40;;;24.80;69.20;;;;;;5023803;28;20025;-68
2023/08/14 10:05:33;;;;;;;6.85;2.33;;;24.70;69.60;;;;;;5032870;28;20390;-70
2023/08/14 10:08:00;;;;;;;5.18;2.00;;;24.90;70.40;;;;;;5034764;28;20471;-67
2023/08/14 10:10:31;;;;;;;4.72;2.05;;;25.00;73.50;;;;;;5031828;28;20022;-67
2023/08/14 10:13:01;;;;;;;7.20;2.25;;;24.80;70.80;;;;;;5023841;28;20079;-67
2023/08/14 10:15:32;;;;;;;7.50;2.03;;;24.70;69.80;;;;;;5021673;28;20022;-68
2023/08/14 10:18:01;;;;;;;7.18;1.95;;;25.40;69.00;;;;;;5019782;28;20040;-67
2023/08/14 10:20:32;;;;;;;8.55;2.00;;;26.00;64.50;;;;;;5023878;28;20032;-68
2023/08/14 10:22:58;;;;;;;8.10;1.95;;;26.40;65.10;;;;;;5027738;28;20029;-67
2023/08/14 10:25:24;;;;;;;5.07;1.73;;;26.10;65.00;;;;;;5018487;28;20052;-67
2023/08/14 10:27:51;;;;;;;7.15;2.13;;;26.50;66.00;;;;;;5025125;28;20046;-67
2023/08/14 10:30:19;;;;;;;4.03;1.80;;;27.00;62.10;;;;;;5018421;28;20049;-68
2023/08/14 10:32:46;;;;;;;2.40;1.40;;;27.20;66.00;;;;;;5024838;28;20024;-67
2023/08/14 10:35:12;;;;;;;3.20;1.70;;;27.00;57.70;;;;;;5024471;28;20381;-72
2023/08/14 10:37:47;;;;;;;6.80;1.88;;;27.10;59.20;;;;;;5026019;28;20041;-67
2023/08/14 10:40:19;;;;;;;4.78;1.75;;;27.00;58.70;;;;;;5020159;28;20026;-67
2023/08/14 10:42:52;;;;;;;4.90;1.80;;;26.90;58.70;;;;;;5028318;28;20037;-68
2023/08/14 10:45:21;;;;;;;5.00;1.70;;;27.50;60.40;;;;;;5007852;28;20088;-67
2023/08/14 10:47:46;;;;;;;4.80;1.60;;;27.50;56.40;;;;;;5023348;28;20073;-69
2023/08/14 10:50:24;;;;;;;5.10;1.60;;;27.40;58.10;;;;;;5016428;28;20117;-68
2023/08/14 10:52:54;;;;;;;3.42;1.40;;;27.70;55.90;;;;;;5021564;28;20037;-68
2023/08/14 10:55:45;;;;;;;4.63;1.73;;;27.70;57.60;;;;;;5023764;28;20064;-68
2023/08/14 10:58:31;;;;;;;4.88;1.55;;;27.70;59.10;;;;;;5022712;28;20120;-68
2023/08/14 11:01:00;;;;;;;3.67;1.48;;;28.00;56.00;;;;;;5019512;28;20517;-68
2023/08/14 11:03:26;;;;;;;7.40;2.03;;;28.00;58.00;;;;;;5016749;28;20042;-68
2023/08/14 11:05:51;;;;;;;3.63;1.60;;;27.70;55.70;;;;;;5027674;28;20037;-68
2023/08/14 11:08:20;;;;;;;5.50;1.80;;;27.50;55.70;;;;;;5024711;28;20037;-67
2023/08/14 11:10:45;;;;;;;3.95;1.33;;;27.60;56.20;;;;;;5028929;28;20056;-68
2023/08/14 11:13:11;;;;;;;4.55;1.83;;;28.30;57.50;;;;;;5022416;28;20473;-68
2023/08/14 11:15:38;;;;;;;6.68;1.70;;;28.00;55.60;;;;;;5020916;28;20037;-68
2023/08/14 11:18:06;;;;;;;6.65;2.00;;;27.60;54.80;;;;;;5018312;28;20041;-68
2023/08/14 11:20:32;;;;;;;5.80;1.83;;;28.60;56.20;;;;;;5026398;28;20037;-67
2023/08/14 11:23:01;;;;;;;6.10;2.13;;;29.00;52.90;;;;;;5016658;28;20072;-67
2023/08/14 11:25:26;;;;;;;3.17;1.67;;;29.30;50.90;;;;;;5026584;28;20365;-68
2023/08/14 11:27:54;;;;;;;3.30;1.85;;;29.00;52.30;;;;;;5026441;28;20094;-67
2023/08/14 11:30:22;;;;;;;4.70;1.60;;;29.00;52.60;;;;;;5021775;28;20389;-68
2023/08/14 11:32:48;;;;;;;4.65;1.65;;;28.90;51.90;;;;;;5031316;28;20044;-68
2023/08/14 11:35:14;;;;;;;3.67;1.73;;;28.90;51.70;;;;;;5028160;28;20029;-68
2023/08/14 11:37:40;;;;;;;5.65;1.92;;;28.80;51.10;;;;;;5021721;28;20525;-68
2023/08/14 11:40:11;;;;;;;4.10;1.63;;;29.00;51.40;;;;;;5026115;28;20160;-68
2023/08/14 11:42:40;;;;;;;4.45;1.67;;;29.50;49.70;;;;;;5026597;28;20112;-70
2023/08/14 11:45:06;;;;;;;5.30;1.90;;;29.40;51.00;;;;;;4991696;28;20052;-67
2023/08/14 11:47:39;;;;;;;3.90;1.58;;;29.90;51.40;;;;;;5021286;28;20033;-66
2023/08/14 11:50:07;;;;;;;4.93;1.65;;;30.00;50.20;;;;;;5032224;28;20034;-66
2023/08/14 11:52:35;;;;;;;5.85;1.70;;;30.40;52.50;;;;;;5028804;28;20080;-66
2023/08/14 11:55:01;;;;;;;6.88;1.58;;;30.80;47.20;;;;;;5025599;28;20049;-66
2023/08/14 11:57:30;;;;;;;6.30;1.83;;;31.10;48.60;;;;;;5022257;28;20382;-66
2023/08/14 11:59:57;;;;;;;6.32;1.98;;;29.90;47.40;;;;;;5031790;28;20052;-66
2023/08/14 12:02:24;;;;;;;6.07;1.95;;;29.60;50.00;;;;;;5022472;28;20378;-66
2023/08/14 12:04:53;;;;;;;3.88;1.83;;;29.30;49.80;;;;;;5020434;28;20482;-67
2023/08/14 12:07:20;;;;;;;3.22;1.60;;;30.20;48.60;;;;;;5033124;28;20037;-66
2023/08/14 12:09:46;;;;;;;4.47;1.60;;;30.10;49.30;;;;;;5033015;28;20030;-68
2023/08/14 12:12:12;;;;;;;5.38;1.70;;;30.50;47.40;;;;;;5023869;28;20026;-66
2023/08/14 12:14:40;;;;;;;5.50;1.70;;;30.80;47.70;;;;;;5028780;28;20469;-67
2023/08/14 12:17:09;;;;;;;3.83;1.58;;;31.00;48.20;;;;;;5019915;28;20037;-66
2023/08/14 12:19:35;;;;;;;;;;;31.10;49.10;;;;;;5029999;28;20058;-66
2023/08/14 12:22:00;;;;;;;5.20;1.83;;;31.10;46.20;;;;;;5022199;28;20362;-66
2023/08/14 12:24:26;;;;;;;5.03;1.42;;;31.50;47.30;;;;;;5026133;28;20072;-67
2023/08/14 12:26:52;;;;;;;3.53;1.40;;;31.10;46.50;;;;;;5027376;28;20037;-65
2023/08/14 12:29:18;;;;;;;4.05;1.77;;;31.20;48.60;;;;;;5016565;28;20034;-67
2023/08/14 12:31:44;;;;;;;3.08;1.40;;;31.20;46.10;;;;;;5023476;28;20026;-65
2023/08/14 12:34:09;;;;;;;3.47;1.50;;;32.10;49.10;;;;;;5033455;28;20037;-66
2023/08/14 12:36:35;;;;;;;3.13;1.75;;;32.40;46.10;;;;;;5034235;28;20037;-66
2023/08/14 12:39:01;;;;;;;3.00;1.65;;;31.80;48.30;;;;;;5034314;28;20041;-66
2023/08/14 12:41:27;;;;;;;4.32;1.73;;;30.80;47.10;;;;;;5027275;28;20042;-65
2023/08/14 12:43:52;;;;;;;5.78;1.83;;;30.30;51.10;;;;;;5027736;28;20515;-64